Time;durP1;ratioP1;P1;durP2;ratioP2;P2;SDS_P1;SDS_P2;PMS_P1;PMS_P2;Temp;Humidity;BMP_temperature;BMP_pressure;BME280_temperature;BME280_humidity;BME280_pressure;Samples;Min_cycle;Max_cycle;Signal;HPM_P1;HPM_P2
2024/03/24 00:00:20;;;;;;;2.47;1.07;;;;;;;3.88;100.00;99905.72;5053794;28;21035;-72
2024/03/24 00:02:45;;;;;;;2.60;0.70;;;;;;;3.87;100.00;99906.00;5053260;28;20700;-71
2024/03/24 00:05:12;;;;;;;2.17;0.60;;;;;;;3.87;100.00;99904.13;5053866;28;20533;-70
2024/03/24 00:07:37;;;;;;;1.70;0.40;;;;;;;3.91;100.00;99904.38;5053652;28;20234;-70
2024/03/24 00:10:05;;;;;;;2.10;0.80;;;;;;;3.91;100.00;99899.03;5052995;28;20970;-69
2024/03/24 00:12:32;;;;;;;2.63;0.53;;;;;;;3.91;100.00;99893.66;5053511;28;20255;-69
2024/03/24 00:14:58;;;;;;;1.90;0.63;;;;;;;3.98;100.00;99896.84;5053370;28;20442;-69
2024/03/24 00:17:24;;;;;;;1.70;0.30;;;;;;;4.01;100.00;99888.25;5052991;28;21002;-69
2024/03/24 00:19:51;;;;;;;5.13;1.17;;;;;;;4.06;100.00;99893.59;5052888;28;20541;-69
2024/03/24 00:22:16;;;;;;;4.83;1.17;;;;;;;4.07;100.00;99887.16;5052946;28;20258;-69
2024/03/24 00:24:43;;;;;;;1.80;0.40;;;;;;;4.08;100.00;99879.94;5053014;28;20469;-69
2024/03/24 00:27:08;;;;;;;3.73;1.20;;;;;;;4.07;100.00;99881.78;5053067;28;20298;-69
2024/03/24 00:29:36;;;;;;;2.03;0.63;;;;;;;4.08;100.00;99874.59;5053005;28;20560;-69
2024/03/24 00:32:03;;;;;;;2.60;0.60;;;;;;;4.10;100.00;99878.56;5054520;28;20298;-70
2024/03/24 00:34:30;;;;;;;2.83;0.90;;;;;;;4.12;100.00;99876.44;5056515;28;20945;-69
2024/03/24 00:36:55;;;;;;;1.90;0.40;;;;;;;4.13;100.00;99874.56;5056529;28;20930;-69
2024/03/24 00:39:22;;;;;;;2.00;0.80;;;;;;;4.16;100.00;99877.50;5056952;28;20434;-70
2024/03/24 00:41:48;;;;;;;1.90;0.40;;;;;;;4.16;100.00;99879.34;5056426;28;20808;-69
2024/03/24 00:44:14;;;;;;;2.23;0.87;;;;;;;4.16;100.00;99874.81;5056322;28;20505;-69
2024/03/24 00:46:41;;;;;;;2.40;0.77;;;;;;;4.15;100.00;99873.19;5056859;28;20294;-69
2024/03/24 00:49:08;;;;;;;2.37;0.50;;;;;;;4.17;100.00;99865.69;5056581;28;20495;-69
2024/03/24 00:51:33;;;;;;;2.50;0.50;;;;;;;4.20;100.00;99865.13;5056714;28;20456;-69
2024/03/24 00:54:00;;;;;;;2.10;0.40;;;;;;;4.21;100.00;99856.00;5056499;28;20901;-69
2024/03/24 00:56:26;;;;;;;2.00;0.60;;;;;;;4.24;100.00;99866.16;5056741;28;20206;-70
2024/03/24 00:58:52;;;;;;;2.03;0.53;;;;;;;4.24;100.00;99855.44;5056476;28;20537;-71
2024/03/24 01:01:18;;;;;;;2.50;1.20;;;;;;;4.20;100.00;99843.66;5056906;28;20291;-70
2024/03/24 01:03:46;;;;;;;1.93;0.60;;;;;;;4.16;100.00;99839.97;5056415;28;21023;-70
2024/03/24 01:06:11;;;;;;;2.67;0.67;;;;;;;4.18;100.00;99840.47;5056325;28;20680;-70
2024/03/24 01:08:41;;;;;;;2.27;0.80;;;;;;;4.12;100.00;99838.09;5056601;28;20492;-70
2024/03/24 01:11:07;;;;;;;2.00;0.70;;;;;;;4.14;100.00;99835.94;5057069;28;20226;-70
2024/03/24 01:13:34;;;;;;;2.10;0.63;;;;;;;4.16;100.00;99833.78;5056058;28;20494;-68
2024/03/24 01:15:59;;;;;;;1.90;0.50;;;;;;;4.13;100.00;99827.13;5056451;28;20230;-70
2024/03/24 01:18:26;;;;;;;1.80;0.40;;;;;;;4.10;100.00;99824.97;5056648;28;20970;-69
2024/03/24 01:20:53;;;;;;;3.70;1.47;;;;;;;4.08;100.00;99824.47;5056307;28;20208;-68
2024/03/24 01:23:20;;;;;;;1.93;0.40;;;;;;;4.10;100.00;99821.50;5056408;28;20576;-69
2024/03/24 01:28:27;;;;;;;2.63;0.97;;;;;;;4.03;100.00;99813.78;5033660;28;20472;-72
2024/03/24 01:30:53;;;;;;;2.87;0.90;;;;;;;3.97;100.00;99813.00;5035494;28;21033;-72
2024/03/24 01:33:19;;;;;;;2.83;0.80;;;;;;;3.97;100.00;99806.84;5035752;28;20561;-72
2024/03/24 01:35:46;;;;;;;4.83;0.90;;;;;;;3.95;100.00;99803.63;5035722;28;20200;-72
2024/03/24 01:38:14;;;;;;;1.70;0.30;;;;;;;3.91;100.00;99802.59;5035383;28;20786;-72
2024/03/24 01:40:46;;;;;;;2.00;0.77;;;;;;;3.86;100.00;99790.03;5035592;28;20534;-71
2024/03/24 01:43:12;;;;;;;1.80;0.53;;;;;;;3.82;100.00;99793.53;5034490;28;20561;-72
2024/03/24 01:45:38;;;;;;;2.00;0.60;;;;;;;3.77;100.00;99792.47;5035524;28;20907;-72
2024/03/24 01:48:06;;;;;;;2.57;0.77;;;;;;;3.73;100.00;99799.47;5035485;28;20482;-72
2024/03/24 01:50:32;;;;;;;1.90;0.50;;;;;;;3.67;100.00;99792.50;5035477;28;20287;-72
2024/03/24 01:52:58;;;;;;;2.00;0.60;;;;;;;3.64;100.00;99792.28;5035329;28;20899;-70
2024/03/24 01:55:25;;;;;;;2.17;0.73;;;;;;;3.61;100.00;99782.91;5035373;28;20211;-69
2024/03/24 01:57:52;;;;;;;2.27;0.70;;;;;;;3.61;100.00;99779.44;5035314;28;20447;-70
2024/03/24 02:00:18;;;;;;;2.77;1.00;;;;;;;3.58;100.00;99782.63;5035244;28;20439;-72
2024/03/24 02:02:45;;;;;;;1.90;0.70;;;;;;;3.61;100.00;99784.78;5034728;28;20590;-70
2024/03/24 02:05:10;;;;;;;1.90;0.60;;;;;;;3.69;100.00;99776.97;5034879;28;20447;-71
2024/03/24 02:07:37;;;;;;;1.80;0.43;;;;;;;3.75;100.00;99773.19;5035134;28;20439;-70
2024/03/24 02:10:03;;;;;;;1.73;0.40;;;;;;;3.75;100.00;99770.50;5035043;28;20211;-70
2024/03/24 02:12:31;;;;;;;1.87;0.40;;;;;;;3.75;100.00;99767.84;5034919;28;20462;-70
2024/03/24 02:14:57;;;;;;;2.20;0.60;;;;;;;3.75;100.00;99759.78;5034697;28;20525;-69
2024/03/24 02:17:24;;;;;;;1.80;0.40;;;;;;;3.74;100.00;99768.13;5034905;28;20522;-69
2024/03/24 02:19:49;;;;;;;1.80;0.40;;;;;;;3.75;100.00;99765.16;5034723;28;20228;-69
2024/03/24 02:22:16;;;;;;;2.73;0.60;;;;;;;3.71;100.00;99760.63;5034727;28;20495;-70
2024/03/24 02:24:43;;;;;;;3.60;1.10;;;;;;;3.69;100.00;99762.78;5034763;28;20207;-70
2024/03/24 02:27:09;;;;;;;2.17;0.77;;;;;;;3.67;100.00;99764.94;5034500;28;20501;-70
2024/03/24 02:29:35;;;;;;;3.43;0.60;;;;;;;3.63;100.00;99754.00;5034370;28;20439;-71
2024/03/24 02:32:02;;;;;;;1.87;0.57;;;;;;;3.63;100.00;99754.00;5034613;28;20443;-70
2024/03/24 02:34:27;;;;;;;2.23;0.80;;;;;;;3.65;100.00;99749.16;5034622;28;20443;-70
2024/03/24 02:36:54;;;;;;;2.03;0.70;;;;;;;3.53;100.00;99754.00;5034548;28;20975;-70
2024/03/24 02:39:20;;;;;;;2.00;0.60;;;;;;;3.48;100.00;99741.47;5034205;28;20730;-70
2024/03/24 02:41:48;;;;;;;3.27;1.13;;;;;;;3.45;100.00;99749.22;5034465;28;20522;-70
2024/03/24 02:44:13;;;;;;;2.07;0.60;;;;;;;3.46;100.00;99737.47;5034292;28;20579;-70
2024/03/24 02:46:40;;;;;;;1.90;0.57;;;;;;;3.44;100.00;99739.59;5034342;28;20526;-70
2024/03/24 02:49:06;;;;;;;2.00;0.50;;;;;;;3.41;100.00;99734.78;5034053;28;20205;-70
2024/03/24 02:51:32;;;;;;;1.90;0.50;;;;;;;3.46;100.00;99742.81;5034317;28;20447;-70
2024/03/24 02:53:58;;;;;;;2.00;0.50;;;;;;;3.46;100.00;99732.13;5033934;28;20657;-70
2024/03/24 02:56:25;;;;;;;2.30;0.93;;;;;;;3.44;100.00;99724.34;5034203;28;20522;-70
2024/03/24 02:58:52;;;;;;;5.13;0.90;;;;;;;3.42;100.00;99725.72;5033828;28;20692;-70
2024/03/24 03:01:19;;;;;;;2.13;0.80;;;;;;;3.39;100.00;99720.91;5033777;28;20935;-70
2024/03/24 03:03:45;;;;;;;1.80;0.40;;;;;;;3.41;100.00;99718.72;5033652;28;21002;-70
2024/03/24 03:06:12;;;;;;;2.40;0.83;;;;;;;3.42;100.00;99725.72;5033779;28;20450;-70
2024/03/24 03:08:38;;;;;;;1.90;0.57;;;;;;;3.43;100.00;99719.28;5034359;28;20295;-70
2024/03/24 03:11:05;;;;;;;5.40;0.93;;;;;;;3.46;100.00;99718.72;5033640;28;20876;-71
2024/03/24 03:13:30;;;;;;;1.90;0.50;;;;;;;3.46;100.00;99716.06;5033757;28;20543;-71
2024/03/24 03:15:58;;;;;;;2.13;0.60;;;;;;;3.47;100.00;99714.97;5033827;28;20882;-70
2024/03/24 03:18:24;;;;;;;2.93;0.60;;;;;;;3.48;100.00;99717.38;5033872;28;20243;-70
2024/03/24 03:20:51;;;;;;;2.30;1.23;;;;;;;3.48;100.00;99714.69;5033818;28;20537;-71
2024/03/24 03:23:16;;;;;;;2.00;0.53;;;;;;;3.47;100.00;99709.63;5033290;28;20689;-71
2024/03/24 03:25:43;;;;;;;2.17;0.50;;;;;;;3.47;100.00;99712.28;5033657;28;20534;-71
2024/03/24 03:28:08;;;;;;;1.80;0.50;;;;;;;3.49;100.00;99716.28;5033362;28;20308;-71
2024/03/24 03:30:35;;;;;;;2.20;0.83;;;;;;;3.45;100.00;99712.59;5033650;28;20546;-71
2024/03/24 03:33:03;;;;;;;2.10;0.50;;;;;;;3.43;100.00;99712.03;5033522;28;20234;-71
2024/03/24 03:35:30;;;;;;;4.77;1.20;;;;;;;3.41;100.00;99705.34;5033573;28;20466;-71
2024/03/24 03:37:55;;;;;;;2.93;0.77;;;;;;;3.34;100.00;99694.16;5033558;28;20530;-71
2024/03/24 03:40:22;;;;;;;2.63;1.10;;;;;;;3.36;100.00;99692.00;5033605;28;20534;-72
2024/03/24 03:42:47;;;;;;;2.27;0.80;;;;;;;3.34;100.00;99688.81;5033032;28;20310;-71
2024/03/24 03:45:15;;;;;;;1.80;0.40;;;;;;;3.32;100.00;99694.44;5033506;28;20535;-71
2024/03/24 03:47:41;;;;;;;1.80;0.37;;;;;;;3.32;100.00;99678.38;5033463;28;20278;-71
2024/03/24 03:50:13;;;;;;;2.10;0.80;;;;;;;3.31;100.00;99682.13;5033459;28;20939;-71
2024/03/24 03:52:39;;;;;;;2.10;0.70;;;;;;;3.31;100.00;99684.00;5033375;28;20236;-71
2024/03/24 03:55:11;;;;;;;2.10;0.80;;;;;;;3.26;100.00;99679.47;5033403;28;20447;-71
2024/03/24 03:57:37;;;;;;;2.20;0.90;;;;;;;3.27;100.00;99686.41;5033473;28;20474;-71
2024/03/24 04:00:10;;;;;;;1.90;0.60;;;;;;;3.25;100.00;99684.03;5033047;28;20447;-71
2024/03/24 04:02:36;;;;;;;2.10;0.60;;;;;;;3.25;100.00;99685.91;5033261;28;20267;-71
2024/03/24 04:05:03;;;;;;;4.03;2.60;;;;;;;3.23;100.00;99680.84;5033237;28;20443;-71
2024/03/24 04:07:30;;;;;;;2.60;1.07;;;;;;;3.22;100.00;99679.22;5035867;28;20576;-71
2024/03/24 04:09:57;;;;;;;1.83;0.47;;;;;;;3.26;100.00;99682.13;5037324;28;20447;-71
2024/03/24 04:12:23;;;;;;;1.80;0.43;;;;;;;3.28;100.00;99672.78;5037180;28;20545;-71
2024/03/24 04:14:50;;;;;;;1.80;0.40;;;;;;;3.26;100.00;99672.22;5036912;28;21019;-71
2024/03/24 04:17:15;;;;;;;2.57;0.97;;;;;;;3.31;100.00;99665.25;5036908;28;20205;-71
2024/03/24 04:19:42;;;;;;;2.20;0.70;;;;;;;3.35;100.00;99658.28;5036847;28;20512;-70
2024/03/24 04:22:07;;;;;;;2.40;0.80;;;;;;;3.40;100.00;99659.03;5037039;28;20250;-70
2024/03/24 04:24:35;;;;;;;1.83;0.53;;;;;;;3.33;100.00;99655.09;5037055;28;20478;-71
2024/03/24 04:27:01;;;;;;;2.53;0.80;;;;;;;3.27;100.00;99655.09;5036506;28;20770;-71
2024/03/24 04:29:28;;;;;;;2.20;1.00;;;;;;;3.26;100.00;99650.03;5037025;28;20530;-72
2024/03/24 04:31:53;;;;;;;3.40;1.67;;;;;;;3.23;100.00;99648.72;5036527;28;20576;-71
2024/03/24 04:34:20;;;;;;;2.43;0.77;;;;;;;3.23;100.00;99650.56;5036566;28;20529;-71
2024/03/24 04:36:46;;;;;;;3.20;0.97;;;;;;;3.23;100.00;99645.22;5036887;28;20247;-71
2024/03/24 04:39:12;;;;;;;3.03;1.33;;;;;;;3.23;100.00;99651.41;5036994;28;20471;-71
2024/03/24 04:41:40;;;;;;;1.70;0.40;;;;;;;3.20;100.00;99643.13;5036775;28;20232;-71
2024/03/24 04:44:07;;;;;;;1.80;0.40;;;;;;;3.18;100.00;99651.41;5036264;28;20900;-70
2024/03/24 04:46:34;;;;;;;1.90;0.60;;;;;;;3.17;100.00;99651.69;5036611;28;20526;-71
2024/03/24 04:49:01;;;;;;;3.30;1.37;;;;;;;3.16;100.00;99664.25;5036602;28;20841;-71
2024/03/24 04:51:27;;;;;;;2.30;0.90;;;;;;;3.15;100.00;99654.66;5036214;28;20939;-72
2024/03/24 04:53:54;;;;;;;1.90;0.60;;;;;;;3.18;100.00;99662.09;5036115;28;20459;-72
2024/03/24 04:56:20;;;;;;;2.67;1.13;;;;;;;3.18;100.00;99653.28;5036560;28;20212;-72
2024/03/24 04:58:48;;;;;;;3.20;1.30;;;;;;;3.20;100.00;99651.13;5036405;28;20546;-71
2024/03/24 05:01:14;;;;;;;3.07;1.13;;;;;;;3.18;100.00;99656.75;5036387;28;20208;-71
2024/03/24 05:03:40;;;;;;;2.30;0.70;;;;;;;3.18;100.00;99651.41;5036157;28;20491;-72
2024/03/24 05:06:07;;;;;;;2.00;0.60;;;;;;;3.22;100.00;99652.44;5036164;28;20986;-71
2024/03/24 05:08:33;;;;;;;1.80;0.40;;;;;;;3.26;100.00;99650.03;5036554;28;20204;-71
2024/03/24 05:11:01;;;;;;;2.20;0.50;;;;;;;3.24;100.00;99644.97;5036134;28;20450;-71
2024/03/24 05:13:27;;;;;;;2.20;0.67;;;;;;;3.28;100.00;99648.69;5036089;28;20502;-71
2024/03/24 05:15:56;;;;;;;2.10;0.73;;;;;;;3.30;100.00;99648.41;5036095;28;20474;-71
2024/03/24 05:18:22;;;;;;;1.83;0.50;;;;;;;3.33;100.00;99636.34;5035854;28;20208;-71
2024/03/24 05:20:48;;;;;;;3.10;1.10;;;;;;;3.36;100.00;99631.22;5036020;28;20447;-71
2024/03/24 05:23:18;;;;;;;2.27;0.90;;;;;;;3.42;100.00;99643.53;5035490;28;20770;-70
2024/03/24 05:25:48;;;;;;;1.90;0.70;;;;;;;3.47;100.00;99637.34;5035685;28;20486;-72
2024/03/24 05:28:14;;;;;;;1.87;0.60;;;;;;;3.51;100.00;99641.88;5035662;28;20530;-72
2024/03/24 05:30:41;;;;;;;2.00;0.70;;;;;;;3.56;100.00;99640.22;5036274;28;20546;-72
2024/03/24 05:33:08;;;;;;;2.73;0.63;;;;;;;3.57;100.00;99637.28;5036061;28;20295;-72
2024/03/24 05:35:35;;;;;;;2.30;1.00;;;;;;;3.50;100.00;99632.25;5035464;28;20816;-72
2024/03/24 05:38:00;;;;;;;3.13;1.40;;;;;;;3.53;100.00;99641.56;5035715;28;20526;-72
2024/03/24 05:40:27;;;;;;;2.60;1.20;;;;;;;3.62;100.00;99629.19;5035720;28;20899;-73
2024/03/24 05:42:53;;;;;;;2.73;1.00;;;;;;;3.67;100.00;99641.75;5035603;28;20297;-73
2024/03/24 05:45:20;;;;;;;3.27;1.43;;;;;;;3.68;100.00;99638.03;5035218;28;20494;-72
2024/03/24 05:47:45;;;;;;;2.13;0.90;;;;;;;3.72;100.00;99631.81;5035524;28;20447;-72
2024/03/24 05:50:13;;;;;;;1.90;0.60;;;;;;;3.79;100.00;99637.66;5035468;28;20542;-72
2024/03/24 05:52:41;;;;;;;1.93;0.60;;;;;;;3.80;100.00;99631.19;5035100;28;20228;-72
2024/03/24 05:55:09;;;;;;;2.20;0.60;;;;;;;3.84;100.00;99630.66;5035391;28;20439;-72
2024/03/24 05:57:35;;;;;;;2.37;1.07;;;;;;;3.88;100.00;99629.81;5035002;28;20442;-73
2024/03/24 06:00:02;;;;;;;2.63;1.13;;;;;;;3.88;100.00;99631.69;5034982;28;20585;-72
2024/03/24 06:02:28;;;;;;;2.13;0.73;;;;;;;3.94;100.00;99622.53;5035089;28;20467;-71
2024/03/24 06:04:55;;;;;;;5.77;1.23;;;;;;;3.94;100.00;99631.38;5035083;28;20483;-70
2024/03/24 06:07:22;;;;;;;2.60;1.40;;;;;;;3.96;100.00;99628.41;5035122;28;20211;-70
2024/03/24 06:09:49;;;;;;;4.13;1.10;;;;;;;4.00;100.00;99624.09;5034930;28;20454;-70
2024/03/24 06:12:15;;;;;;;2.90;0.87;;;;;;;4.09;100.00;99627.78;5034691;28;20455;-70
2024/03/24 06:14:42;;;;;;;3.10;1.47;;;;;;;4.13;100.00;99628.81;5035046;28;20534;-70
2024/03/24 06:17:07;;;;;;;3.00;0.87;;;;;;;4.10;100.00;99624.00;5035388;28;20513;-70
2024/03/24 06:19:34;;;;;;;2.37;0.90;;;;;;;4.12;100.00;99616.50;5034982;28;20812;-70
2024/03/24 06:22:00;;;;;;;2.33;0.50;;;;;;;4.18;100.00;99618.03;5034789;28;20200;-70
2024/03/24 06:24:28;;;;;;;1.80;0.40;;;;;;;4.21;100.00;99614.00;5034399;28;20500;-70
2024/03/24 06:26:53;;;;;;;2.27;0.93;;;;;;;4.24;100.00;99627.63;5034499;28;20212;-70
2024/03/24 06:29:20;;;;;;;3.90;1.00;;;;;;;4.31;100.00;99613.91;5034073;28;21026;-70
2024/03/24 06:31:46;;;;;;;2.40;0.70;;;;;;;4.39;100.00;99610.59;5034283;28;20680;-70
2024/03/24 06:34:12;;;;;;;2.00;0.80;;;;;;;4.40;100.00;99620.25;5034309;28;20498;-70
2024/03/24 06:36:39;;;;;;;2.20;0.90;;;;;;;4.41;100.00;99613.00;5034087;28;20686;-67
2024/03/24 06:39:06;;;;;;;3.40;1.40;;;;;;;4.43;100.00;99614.31;5034060;28;20450;-70
2024/03/24 06:41:38;;;;;;;2.50;0.60;;;;;;;4.39;100.00;99615.16;5033937;28;20955;-69
2024/03/24 06:44:11;;;;;;;2.50;0.60;;;;;;;4.42;100.00;99614.59;5034274;28;20486;-70
2024/03/24 06:46:37;;;;;;;4.00;1.03;;;;;;;4.43;100.00;99610.84;5034641;28;20430;-70
2024/03/24 06:49:04;;;;;;;2.20;0.83;;;;;;;4.42;100.00;99611.91;5034299;28;20447;-70
2024/03/24 06:51:29;;;;;;;2.40;1.10;;;;;;;4.42;100.00;99606.53;5034297;28;20210;-70
2024/03/24 06:53:56;;;;;;;2.97;0.87;;;;;;;4.41;100.00;99608.44;5034191;28;20553;-70
2024/03/24 06:56:22;;;;;;;2.20;0.83;;;;;;;4.44;100.00;99609.75;5033895;28;20201;-70
2024/03/24 06:58:50;;;;;;;2.20;0.70;;;;;;;4.54;100.00;99606.94;5034072;28;20522;-69
2024/03/24 07:01:15;;;;;;;1.93;0.57;;;;;;;4.60;100.00;99605.81;5034095;28;20203;-69
2024/03/24 07:03:42;;;;;;;2.77;1.00;;;;;;;4.65;100.00;99607.63;5033603;28;20586;-69
2024/03/24 07:06:07;;;;;;;2.23;0.90;;;;;;;4.73;100.00;99605.13;5033609;28;20235;-69
2024/03/24 07:08:34;;;;;;;1.90;0.50;;;;;;;4.79;100.00;99597.81;5034228;28;20485;-70
2024/03/24 07:10:59;;;;;;;2.43;0.60;;;;;;;4.77;100.00;99600.78;5033964;28;20734;-70
2024/03/24 07:13:26;;;;;;;2.70;0.50;;;;;;;4.76;100.00;99599.19;5033718;28;20467;-70
2024/03/24 07:15:53;;;;;;;2.43;1.13;;;;;;;4.80;100.00;99602.09;5033446;28;20684;-69
2024/03/24 07:18:20;;;;;;;1.80;0.47;;;;;;;4.87;100.00;99604.41;5033802;28;20861;-69
2024/03/24 07:20:45;;;;;;;2.40;0.70;;;;;;;4.93;100.00;99603.28;5033716;28;20466;-69
2024/03/24 07:23:14;;;;;;;2.63;0.90;;;;;;;4.96;99.70;99597.34;5033690;28;20502;-70
2024/03/24 07:25:40;;;;;;;2.47;0.83;;;;;;;5.03;100.00;99597.78;5033890;28;20224;-69
2024/03/24 07:28:08;;;;;;;2.00;0.73;;;;;;;5.10;99.67;99592.06;5065183;22;20489;-64
2024/03/24 07:30:33;;;;;;;2.73;0.70;;;;;;;5.18;99.90;99600.28;5053669;28;20207;-64
2024/03/24 07:33:01;;;;;;;1.80;0.40;;;;;;;5.23;100.00;99591.34;5053670;28;20549;-64
2024/03/24 07:35:27;;;;;;;2.13;0.50;;;;;;;5.31;99.28;99588.81;5053281;28;20238;-64
2024/03/24 07:37:53;;;;;;;2.50;0.80;;;;;;;5.29;98.51;99582.13;5053486;28;20527;-64
2024/03/24 07:40:21;;;;;;;2.10;0.50;;;;;;;5.29;99.22;99590.97;5052848;28;20718;-64
2024/03/24 07:42:48;;;;;;;2.43;0.73;;;;;;;5.30;98.57;99581.81;5052525;28;20519;-64
2024/03/24 07:45:13;;;;;;;2.90;0.77;;;;;;;5.38;99.52;99576.91;5053298;28;20482;-64
2024/03/24 07:47:40;;;;;;;1.80;0.50;;;;;;;5.46;99.96;99576.25;5053195;28;20521;-64
2024/03/24 07:50:08;;;;;;;1.80;0.40;;;;;;;5.50;99.14;99575.38;5053481;28;20231;-64
2024/03/24 07:52:35;;;;;;;2.63;1.20;;;;;;;5.54;97.72;99583.66;5053552;28;20466;-64
2024/03/24 07:55:00;;;;;;;3.17;0.90;;;;;;;5.64;97.18;99577.31;5053430;28;20456;-64
2024/03/24 07:57:27;;;;;;;2.70;1.00;;;;;;;5.72;96.71;99579.34;5053332;28;20438;-64
2024/03/24 07:59:53;;;;;;;4.57;1.50;;;;;;;5.79;96.82;99577.84;5053527;28;20207;-64
2024/03/24 08:02:19;;;;;;;2.47;0.80;;;;;;;5.91;96.99;99565.84;5053492;28;20545;-64
2024/03/24 08:04:45;;;;;;;2.30;0.60;;;;;;;6.06;97.31;99566.44;5053257;28;20224;-64
2024/03/24 08:07:13;;;;;;;2.53;0.87;;;;;;;6.19;95.81;99567.53;5053354;28;20524;-64
2024/03/24 08:09:38;;;;;;;2.00;0.60;;;;;;;6.30;93.79;99571.63;5053366;28;20639;-64
2024/03/24 08:12:05;;;;;;;2.53;0.60;;;;;;;6.37;93.82;99562.38;5053322;28;20485;-66
2024/03/24 08:14:31;;;;;;;2.30;0.77;;;;;;;6.44;90.97;99563.56;5053317;28;20207;-66
2024/03/24 08:16:58;;;;;;;2.50;0.83;;;;;;;6.46;91.49;99564.09;5053395;28;20496;-65
2024/03/24 08:19:24;;;;;;;2.07;0.80;;;;;;;6.55;92.11;99561.47;5053036;28;20208;-66
2024/03/24 08:21:50;;;;;;;3.03;0.97;;;;;;;6.65;91.49;99561.28;5053880;28;20448;-65
2024/03/24 08:24:17;;;;;;;3.60;1.27;;;;;;;6.77;90.92;99560.75;5053056;28;20309;-65
2024/03/24 08:26:44;;;;;;;2.63;0.73;;;;;;;6.82;89.02;99568.75;5052738;28;20938;-65
2024/03/24 08:29:10;;;;;;;2.13;0.77;;;;;;;6.89;88.29;99550.28;5053105;28;20430;-65
2024/03/24 08:31:37;;;;;;;2.50;1.00;;;;;;;6.99;87.21;99551.94;5052753;28;20529;-64
2024/03/24 08:34:02;;;;;;;2.40;0.93;;;;;;;7.17;88.70;99551.03;5052897;28;20523;-64
2024/03/24 08:36:29;;;;;;;2.30;0.70;;;;;;;7.38;87.63;99550.56;5052772;28;20989;-64
2024/03/24 08:38:54;;;;;;;3.17;1.00;;;;;;;7.47;84.23;99554.09;5053032;28;20238;-64
2024/03/24 08:41:22;;;;;;;2.00;0.50;;;;;;;7.49;86.14;99554.63;5052958;28;20471;-64
2024/03/24 08:43:48;;;;;;;4.90;1.70;;;;;;;7.52;83.20;99551.28;5052474;28;20307;-64
2024/03/24 08:46:15;;;;;;;2.57;0.60;;;;;;;7.62;84.44;99553.75;5053151;28;20527;-64
2024/03/24 08:48:41;;;;;;;2.30;0.80;;;;;;;7.69;82.11;99548.72;5052941;28;20204;-64
2024/03/24 08:51:07;;;;;;;4.33;1.27;;;;;;;7.73;83.37;99547.00;5052869;28;20473;-64
2024/03/24 08:53:33;;;;;;;2.43;0.83;;;;;;;7.77;85.49;99547.19;5054840;28;20494;-64
2024/03/24 08:56:00;;;;;;;3.17;1.00;;;;;;;7.79;84.69;99545.78;5056548;28;20482;-64
2024/03/24 08:58:27;;;;;;;3.47;1.00;;;;;;;7.71;83.04;99543.81;5056453;28;20242;-64
2024/03/24 09:00:54;;;;;;;2.47;0.90;;;;;;;7.61;85.04;99552.13;5056529;28;20456;-65
2024/03/24 09:03:19;;;;;;;5.77;1.40;;;;;;;7.36;86.82;99548.16;5056003;28;20450;-64
2024/03/24 09:05:46;;;;;;;3.23;1.40;;;;;;;7.14;88.90;99556.22;5056226;28;20484;-64
2024/03/24 09:08:12;;;;;;;3.13;0.50;;;;;;;6.92;91.40;99548.88;5055932;28;20216;-64
2024/03/24 09:10:38;;;;;;;2.20;0.60;;;;;;;6.68;91.67;99546.41;5056232;28;20532;-64
2024/03/24 09:13:05;;;;;;;2.93;0.93;;;;;;;6.53;93.32;99547.53;5056138;28;20224;-64
2024/03/24 09:15:32;;;;;;;2.23;0.97;;;;;;;6.44;95.67;99546.63;5056144;28;20529;-64
2024/03/24 09:17:59;;;;;;;2.47;0.97;;;;;;;6.36;97.02;99542.75;5055878;28;20528;-64
2024/03/24 09:20:24;;;;;;;2.00;0.50;;;;;;;6.36;98.32;99541.94;5055979;28;20509;-64
2024/03/24 09:22:51;;;;;;;2.40;0.90;;;;;;;6.38;98.78;99537.09;5055639;28;21136;-64
2024/03/24 09:25:16;;;;;;;2.30;0.60;;;;;;;6.38;99.43;99539.78;5056211;28;20246;-64
2024/03/24 09:27:46;;;;;;;1.77;0.43;;;;;;;6.38;98.99;99540.56;5055655;28;21009;-64
2024/03/24 09:30:14;;;;;;;2.83;1.10;;;;;;;6.44;100.00;99538.56;5055647;28;20755;-65
2024/03/24 09:32:42;;;;;;;2.60;1.10;;;;;;;6.33;99.06;99551.44;5055687;28;20474;-64
2024/03/24 09:35:08;;;;;;;2.57;1.10;;;;;;;6.25;100.00;99539.47;5055793;28;20529;-65
2024/03/24 09:37:34;;;;;;;2.53;0.80;;;;;;;6.19;100.00;99537.94;5055745;28;20442;-64
2024/03/24 09:40:00;;;;;;;2.40;0.57;;;;;;;6.17;100.00;99539.34;5055372;28;21016;-64
2024/03/24 09:42:29;;;;;;;3.20;0.80;;;;;;;6.11;100.00;99541.34;5055662;28;20561;-64
2024/03/24 09:44:57;;;;;;;2.70;0.73;;;;;;;6.04;100.00;99541.72;5055526;28;20230;-64
2024/03/24 09:47:26;;;;;;;2.00;0.60;;;;;;;6.03;100.00;99533.97;5055183;28;20954;-66
2024/03/24 09:49:55;;;;;;;2.47;0.87;;;;;;;5.96;100.00;99539.72;5055250;28;20941;-64
2024/03/24 09:52:24;;;;;;;2.37;0.80;;;;;;;5.92;100.00;99533.34;5055604;28;20490;-64
2024/03/24 09:54:49;;;;;;;2.17;0.83;;;;;;;5.89;100.00;99530.41;5055037;28;20499;-64
2024/03/24 09:57:17;;;;;;;3.30;0.77;;;;;;;5.89;100.00;99530.41;5055052;28;20446;-64
2024/03/24 09:59:47;;;;;;;2.37;0.60;;;;;;;5.83;100.00;99535.06;5054889;28;20246;-64
2024/03/24 10:02:13;;;;;;;2.30;0.70;;;;;;;5.76;100.00;99535.47;5054970;28;20494;-64
2024/03/24 10:04:40;;;;;;;1.90;0.50;;;;;;;5.73;100.00;99536.06;5054498;28;20489;-64
2024/03/24 10:07:07;;;;;;;4.83;1.13;;;;;;;5.71;100.00;99543.63;5055198;28;20438;-64
2024/03/24 10:09:34;;;;;;;1.90;0.53;;;;;;;5.63;100.00;99533.53;5055173;28;20452;-64
2024/03/24 10:12:11;;;;;;;2.07;0.73;;;;;;;5.63;100.00;99536.22;5055022;28;20438;-63
2024/03/24 10:14:37;;;;;;;2.80;1.03;;;;;;;5.54;100.00;99538.78;5054643;28;20521;-64
2024/03/24 10:17:16;;;;;;;2.73;0.90;;;;;;;5.44;100.00;99527.38;5054920;28;20484;-64
2024/03/24 10:19:44;;;;;;;2.00;0.43;;;;;;;5.35;100.00;99534.53;5054784;28;20531;-64
2024/03/24 10:22:13;;;;;;;2.03;0.70;;;;;;;5.29;100.00;99526.53;5054436;28;20985;-64
2024/03/24 10:24:42;;;;;;;2.60;0.80;;;;;;;5.29;100.00;99520.38;5054252;28;20482;-64
2024/03/24 10:27:09;;;;;;;2.10;0.60;;;;;;;5.26;100.00;99520.97;5054464;28;20457;-65
2024/03/24 10:29:35;;;;;;;1.80;0.50;;;;;;;5.25;100.00;99522.84;5054654;28;20444;-64
2024/03/24 10:32:01;;;;;;;1.90;0.50;;;;;;;5.30;100.00;99513.91;5054392;28;20442;-64
2024/03/24 10:34:31;;;;;;;1.90;0.50;;;;;;;5.42;100.00;99508.91;5054530;28;20668;-65
2024/03/24 10:36:58;;;;;;;2.00;0.50;;;;;;;5.45;100.00;99505.63;5054480;28;21017;-64
2024/03/24 10:39:26;;;;;;;2.00;0.60;;;;;;;5.53;100.00;99504.97;5054833;28;20438;-64
2024/03/24 10:41:53;;;;;;;2.63;0.63;;;;;;;5.66;100.00;99506.06;5054559;28;20462;-64
2024/03/24 10:44:20;;;;;;;2.10;0.80;;;;;;;5.68;100.00;99506.59;5054814;28;20525;-64
2024/03/24 10:46:48;;;;;;;1.87;0.50;;;;;;;5.73;100.00;99503.81;5054552;28;20957;-64
2024/03/24 10:49:20;;;;;;;2.57;0.60;;;;;;;5.79;100.00;99493.75;5054502;28;20807;-64
2024/03/24 10:51:48;;;;;;;2.00;0.70;;;;;;;5.83;100.00;99498.25;5054389;28;20501;-64
2024/03/24 10:54:18;;;;;;;2.63;0.83;;;;;;;5.94;100.00;99490.06;5054204;28;20466;-64
2024/03/24 10:56:46;;;;;;;2.30;0.67;;;;;;;6.05;100.00;99496.81;5054115;28;20533;-64
2024/03/24 10:59:14;;;;;;;1.90;0.50;;;;;;;6.18;100.00;99490.66;5054181;28;20445;-64
2024/03/24 11:01:39;;;;;;;2.10;0.60;;;;;;;6.25;100.00;99491.06;5054123;28;20443;-64
2024/03/24 11:04:08;;;;;;;2.80;0.90;;;;;;;6.32;100.00;99498.72;5054067;28;20903;-64
2024/03/24 11:06:36;;;;;;;2.70;1.10;;;;;;;6.30;100.00;99496.34;5053777;28;20214;-64
2024/03/24 11:09:05;;;;;;;2.10;0.70;;;;;;;6.21;100.00;99492.75;5053668;28;20449;-65
2024/03/24 11:11:31;;;;;;;1.80;0.40;;;;;;;6.18;100.00;99496.03;5054011;28;20445;-66
2024/03/24 11:14:00;;;;;;;2.20;0.97;;;;;;;6.07;100.00;99491.97;5053718;28;20461;-64
2024/03/24 11:16:26;;;;;;;3.00;1.00;;;;;;;6.02;100.00;99486.66;5053580;28;21001;-64
2024/03/24 11:18:52;;;;;;;5.63;0.80;;;;;;;6.04;100.00;99487.16;5053519;28;20537;-64
2024/03/24 11:21:35;;;;;;;2.87;0.80;;;;;;;6.11;100.00;99497.50;5053864;28;20231;-64
2024/03/24 11:24:02;;;;;;;2.00;0.67;;;;;;;6.11;100.00;99489.44;5052518;28;20474;-64
2024/03/24 11:26:31;;;;;;;2.63;1.00;;;;;;;6.12;100.00;99491.84;5053295;28;20518;-65
2024/03/24 11:28:59;;;;;;;1.83;0.50;;;;;;;6.13;100.00;99484.59;5053806;28;20427;-64
2024/03/24 11:31:33;;;;;;;2.33;0.73;;;;;;;6.23;100.00;99479.78;5053712;28;20435;-64
2024/03/24 11:34:01;;;;;;;3.07;0.67;;;;;;;6.28;100.00;99487.75;5053581;28;20516;-64